sensor_id;sensor_type;location;lat;lon;timestamp;temperature;humidity
41256;DHT22;26989;45.524;10.938;2023-01-13T00:01:27;6.30;99.90
41256;DHT22;26989;45.524;10.938;2023-01-13T00:03:55;6.30;99.90
41256;DHT22;26989;45.524;10.938;2023-01-13T00:06:24;6.30;99.90
41256;DHT22;26989;45.524;10.938;2023-01-13T00:08:52;6.30;99.90
41256;DHT22;26989;45.524;10.938;2023-01-13T00:11:20;6.40;99.90
41256;DHT22;26989;45.524;10.938;2023-01-13T00:13:47;6.20;99.90
41256;DHT22;26989;45.524;10.938;2023-01-13T00:16:16;6.10;99.90
41256;DHT22;26989;45.524;10.938;2023-01-13T00:18:44;5.90;99.90
41256;DHT22;26989;45.524;10.938;2023-01-13T00:21:19;5.80;99.90
41256;DHT22;26989;45.524;10.938;2023-01-13T00:23:48;5.70;99.90
41256;DHT22;26989;45.524;10.938;2023-01-13T00:26:19;5.60;99.90
41256;DHT22;26989;45.524;10.938;2023-01-13T00:28:47;5.40;99.90
41256;DHT22;26989;45.524;10.938;2023-01-13T00:31:17;5.40;99.90
41256;DHT22;26989;45.524;10.938;2023-01-13T00:33:45;5.30;99.90
41256;DHT22;26989;45.524;10.938;2023-01-13T00:36:14;5.30;99.90
41256;DHT22;26989;45.524;10.938;2023-01-13T00:38:43;5.40;99.90
41256;DHT22;26989;45.524;10.938;2023-01-13T00:41:12;5.20;99.90
41256;DHT22;26989;45.524;10.938;2023-01-13T00:43:40;5.10;99.90
41256;DHT22;26989;45.524;10.938;2023-01-13T00:46:09;5.20;99.90
41256;DHT22;26989;45.524;10.938;2023-01-13T00:48:37;5.10;99.90
41256;DHT22;26989;45.524;10.938;2023-01-13T00:51:18;5.20;99.90
41256;DHT22;26989;45.524;10.938;2023-01-13T00:53:50;5.20;99.90
41256;DHT22;26989;45.524;10.938;2023-01-13T00:59:04;5.10;99.90
41256;DHT22;26989;45.524;10.938;2023-01-13T01:01:31;5.10;99.90
41256;DHT22;26989;45.524;10.938;2023-01-13T01:03:58;5.00;99.90
41256;DHT22;26989;45.524;10.938;2023-01-13T01:06:26;5.00;99.90
41256;DHT22;26989;45.524;10.938;2023-01-13T01:08:54;4.90;99.90
41256;DHT22;26989;45.524;10.938;2023-01-13T01:11:24;5.10;99.90
41256;DHT22;26989;45.524;10.938;2023-01-13T01:13:53;5.20;99.90
41256;DHT22;26989;45.524;10.938;2023-01-13T01:16:22;5.20;99.90
41256;DHT22;26989;45.524;10.938;2023-01-13T01:18:50;5.30;99.90
41256;DHT22;26989;45.524;10.938;2023-01-13T01:21:19;5.60;99.90
41256;DHT22;26989;45.524;10.938;2023-01-13T01:23:46;5.60;99.90
41256;DHT22;26989;45.524;10.938;2023-01-13T01:26:19;5.50;99.90
41256;DHT22;26989;45.524;10.938;2023-01-13T01:28:46;5.40;99.90
41256;DHT22;26989;45.524;10.938;2023-01-13T01:31:19;5.30;99.90
41256;DHT22;26989;45.524;10.938;2023-01-13T01:33:47;5.10;99.90
41256;DHT22;26989;45.524;10.938;2023-01-13T01:36:15;5.00;99.90
41256;DHT22;26989;45.524;10.938;2023-01-13T01:38:43;4.90;99.90
41256;DHT22;26989;45.524;10.938;2023-01-13T01:41:15;4.80;99.90
41256;DHT22;26989;45.524;10.938;2023-01-13T01:43:56;4.90;99.90
41256;DHT22;26989;45.524;10.938;2023-01-13T01:46:39;4.80;99.90
41256;DHT22;26989;45.524;10.938;2023-01-13T01:49:23;4.70;99.90
41256;DHT22;26989;45.524;10.938;2023-01-13T01:52:31;4.70;99.90
41256;DHT22;26989;45.524;10.938;2023-01-13T01:55:04;4.60;99.90
41256;DHT22;26989;45.524;10.938;2023-01-13T01:57:41;4.60;99.90
41256;DHT22;26989;45.524;10.938;2023-01-13T02:00:09;4.50;99.90
41256;DHT22;26989;45.524;10.938;2023-01-13T02:02:36;4.40;99.90
41256;DHT22;26989;45.524;10.938;2023-01-13T02:05:03;4.40;99.90
41256;DHT22;26989;45.524;10.938;2023-01-13T02:07:31;4.50;99.90
41256;DHT22;26989;45.524;10.938;2023-01-13T02:10:04;4.40;99.90
41256;DHT22;26989;45.524;10.938;2023-01-13T02:12:32;4.40;99.90
41256;DHT22;26989;45.524;10.938;2023-01-13T02:23:26;4.40;99.90
41256;DHT22;26989;45.524;10.938;2023-01-13T02:29:48;4.30;99.90
41256;DHT22;26989;45.524;10.938;2023-01-13T02:35:39;4.20;99.90
41256;DHT22;26989;45.524;10.938;2023-01-13T02:38:12;4.20;99.90
41256;DHT22;26989;45.524;10.938;2023-01-13T02:43:27;4.20;99.90
41256;DHT22;26989;45.524;10.938;2023-01-13T02:49:15;4.20;99.90
41256;DHT22;26989;45.524;10.938;2023-01-13T02:51:46;4.20;99.90
41256;DHT22;26989;45.524;10.938;2023-01-13T02:54:25;4.10;99.90
41256;DHT22;26989;45.524;10.938;2023-01-13T02:56:54;4.10;99.90
41256;DHT22;26989;45.524;10.938;2023-01-13T02:59:23;4.30;99.90
41256;DHT22;26989;45.524;10.938;2023-01-13T03:01:58;4.20;99.90
41256;DHT22;26989;45.524;10.938;2023-01-13T03:04:44;4.40;99.90
41256;DHT22;26989;45.524;10.938;2023-01-13T03:10:08;4.60;99.90
41256;DHT22;26989;45.524;10.938;2023-01-13T03:12:39;4.40;99.90
41256;DHT22;26989;45.524;10.938;2023-01-13T03:21:13;3.90;99.90
41256;DHT22;26989;45.524;10.938;2023-01-13T03:23:50;4.00;99.90
41256;DHT22;26989;45.524;10.938;2023-01-13T03:26:28;4.00;99.90
41256;DHT22;26989;45.524;10.938;2023-01-13T03:31:32;3.80;99.90
41256;DHT22;26989;45.524;10.938;2023-01-13T03:34:04;3.80;99.90
41256;DHT22;26989;45.524;10.938;2023-01-13T03:36:34;3.70;99.90
41256;DHT22;26989;45.524;10.938;2023-01-13T03:39:14;3.70;99.90
41256;DHT22;26989;45.524;10.938;2023-01-13T03:41:49;3.80;99.90
41256;DHT22;26989;45.524;10.938;2023-01-13T03:44:31;3.80;99.90
41256;DHT22;26989;45.524;10.938;2023-01-13T03:47:20;4.00;99.90
41256;DHT22;26989;45.524;10.938;2023-01-13T03:52:46;4.20;99.90
41256;DHT22;26989;45.524;10.938;2023-01-13T03:55:21;4.30;99.90
41256;DHT22;26989;45.524;10.938;2023-01-13T04:00:25;4.40;99.90
41256;DHT22;26989;45.524;10.938;2023-01-13T04:02:59;4.40;99.90
41256;DHT22;26989;45.524;10.938;2023-01-13T04:05:31;4.40;99.90
41256;DHT22;26989;45.524;10.938;2023-01-13T04:10:42;4.40;99.90
41256;DHT22;26989;45.524;10.938;2023-01-13T04:13:13;4.40;99.90
41256;DHT22;26989;45.524;10.938;2023-01-13T04:15:43;4.50;99.90
41256;DHT22;26989;45.524;10.938;2023-01-13T04:20:40;4.40;99.90
41256;DHT22;26989;45.524;10.938;2023-01-13T04:23:08;4.50;99.90
41256;DHT22;26989;45.524;10.938;2023-01-13T04:25:36;4.50;99.90
41256;DHT22;26989;45.524;10.938;2023-01-13T04:28:03;4.50;99.90
41256;DHT22;26989;45.524;10.938;2023-01-13T04:30:30;4.60;99.90
41256;DHT22;26989;45.524;10.938;2023-01-13T04:32:57;4.60;99.90
41256;DHT22;26989;45.524;10.938;2023-01-13T04:35:24;4.70;99.90
41256;DHT22;26989;45.524;10.938;2023-01-13T04:37:51;4.70;99.90
41256;DHT22;26989;45.524;10.938;2023-01-13T04:40:18;4.70;99.90
41256;DHT22;26989;45.524;10.938;2023-01-13T04:42:46;4.90;99.90
41256;DHT22;26989;45.524;10.938;2023-01-13T04:45:13;4.90;99.90
41256;DHT22;26989;45.524;10.938;2023-01-13T04:47:40;4.80;99.90
41256;DHT22;26989;45.524;10.938;2023-01-13T04:50:09;4.70;99.90
41256;DHT22;26989;45.524;10.938;2023-01-13T04:52:37;4.80;99.90
41256;DHT22;26989;45.524;10.938;2023-01-13T04:55:04;4.80;99.90
41256;DHT22;26989;45.524;10.938;2023-01-13T04:57:32;4.90;99.90
41256;DHT22;26989;45.524;10.938;2023-01-13T05:00:00;5.00;99.90
41256;DHT22;26989;45.524;10.938;2023-01-13T05:02:27;5.00;99.90
41256;DHT22;26989;45.524;10.938;2023-01-13T05:04:54;5.10;99.90
41256;DHT22;26989;45.524;10.938;2023-01-13T05:07:22;5.10;99.90
41256;DHT22;26989;45.524;10.938;2023-01-13T05:09:49;5.00;99.90
41256;DHT22;26989;45.524;10.938;2023-01-13T05:12:16;5.00;99.90
41256;DHT22;26989;45.524;10.938;2023-01-13T05:15:01;5.10;99.90
41256;DHT22;26989;45.524;10.938;2023-01-13T05:17:47;5.10;99.90
41256;DHT22;26989;45.524;10.938;2023-01-13T05:20:14;5.10;99.90
41256;DHT22;26989;45.524;10.938;2023-01-13T05:22:41;5.10;99.90
41256;DHT22;26989;45.524;10.938;2023-01-13T05:25:27;5.10;99.90
41256;DHT22;26989;45.524;10.938;2023-01-13T05:27:55;4.90;99.90
41256;DHT22;26989;45.524;10.938;2023-01-13T05:30:31;4.70;99.90
41256;DHT22;26989;45.524;10.938;2023-01-13T05:33:01;4.70;99.90
41256;DHT22;26989;45.524;10.938;2023-01-13T05:35:29;4.80;99.90
41256;DHT22;26989;45.524;10.938;2023-01-13T05:37:56;4.60;99.90
41256;DHT22;26989;45.524;10.938;2023-01-13T05:40:24;4.60;99.90
41256;DHT22;26989;45.524;10.938;2023-01-13T05:43:13;4.70;99.90
41256;DHT22;26989;45.524;10.938;2023-01-13T05:45:48;4.80;99.90
41256;DHT22;26989;45.524;10.938;2023-01-13T05:48:17;5.30;99.90
41256;DHT22;26989;45.524;10.938;2023-01-13T05:50:46;5.20;99.90
41256;DHT22;26989;45.524;10.938;2023-01-13T05:53:13;5.10;99.90
41256;DHT22;26989;45.524;10.938;2023-01-13T05:55:41;4.90;99.90
41256;DHT22;26989;45.524;10.938;2023-01-13T05:58:10;4.80;99.90
41256;DHT22;26989;45.524;10.938;2023-01-13T06:00:38;5.00;99.90
41256;DHT22;26989;45.524;10.938;2023-01-13T06:03:18;5.20;99.90
41256;DHT22;26989;45.524;10.938;2023-01-13T06:05:47;5.30;99.90
41256;DHT22;26989;45.524;10.938;2023-01-13T06:08:14;5.40;99.90
41256;DHT22;26989;45.524;10.938;2023-01-13T06:10:41;5.40;99.90
41256;DHT22;26989;45.524;10.938;2023-01-13T06:13:08;5.40;99.90
41256;DHT22;26989;45.524;10.938;2023-01-13T06:15:35;5.30;99.90
41256;DHT22;26989;45.524;10.938;2023-01-13T06:18:04;5.20;99.90
41256;DHT22;26989;45.524;10.938;2023-01-13T06:20:32;5.30;99.90
41256;DHT22;26989;45.524;10.938;2023-01-13T06:23:00;5.30;99.90
41256;DHT22;26989;45.524;10.938;2023-01-13T06:25:38;5.30;99.90
41256;DHT22;26989;45.524;10.938;2023-01-13T06:28:08;5.30;99.90
41256;DHT22;26989;45.524;10.938;2023-01-13T06:30:50;5.30;99.90
41256;DHT22;26989;45.524;10.938;2023-01-13T06:33:22;5.20;99.90
41256;DHT22;26989;45.524;10.938;2023-01-13T06:35:55;5.20;99.90
41256;DHT22;26989;45.524;10.938;2023-01-13T06:38:25;5.20;99.90
41256;DHT22;26989;45.524;10.938;2023-01-13T06:40:54;5.20;99.90
41256;DHT22;26989;45.524;10.938;2023-01-13T06:43:22;5.20;99.90
41256;DHT22;26989;45.524;10.938;2023-01-13T06:45:54;5.20;99.90
41256;DHT22;26989;45.524;10.938;2023-01-13T06:48:22;5.20;99.90
41256;DHT22;26989;45.524;10.938;2023-01-13T06:50:52;5.30;99.90
41256;DHT22;26989;45.524;10.938;2023-01-13T06:53:20;5.30;99.90
41256;DHT22;26989;45.524;10.938;2023-01-13T06:55:47;5.30;99.90
41256;DHT22;26989;45.524;10.938;2023-01-13T06:58:16;5.30;99.90
41256;DHT22;26989;45.524;10.938;2023-01-13T07:00:44;5.30;99.90
41256;DHT22;26989;45.524;10.938;2023-01-13T07:03:21;5.30;99.90
41256;DHT22;26989;45.524;10.938;2023-01-13T07:05:53;5.30;99.90
41256;DHT22;26989;45.524;10.938;2023-01-13T07:08:22;5.20;99.90
41256;DHT22;26989;45.524;10.938;2023-01-13T07:10:53;5.30;99.90
41256;DHT22;26989;45.524;10.938;2023-01-13T07:13:20;5.30;99.90
41256;DHT22;26989;45.524;10.938;2023-01-13T07:16:07;5.30;99.90
41256;DHT22;26989;45.524;10.938;2023-01-13T07:18:37;5.40;99.90
41256;DHT22;26989;45.524;10.938;2023-01-13T07:21:09;5.40;99.90
41256;DHT22;26989;45.524;10.938;2023-01-13T07:23:38;5.40;99.90
41256;DHT22;26989;45.524;10.938;2023-01-13T07:26:19;5.40;99.90
41256;DHT22;26989;45.524;10.938;2023-01-13T07:28:48;5.40;99.90
41256;DHT22;26989;45.524;10.938;2023-01-13T07:31:19;5.30;99.90
41256;DHT22;26989;45.524;10.938;2023-01-13T07:33:47;5.40;99.90
41256;DHT22;26989;45.524;10.938;2023-01-13T07:36:16;5.50;99.90
41256;DHT22;26989;45.524;10.938;2023-01-13T07:38:45;5.60;99.90
41256;DHT22;26989;45.524;10.938;2023-01-13T07:41:14;5.50;99.90
41256;DHT22;26989;45.524;10.938;2023-01-13T07:44:02;5.50;99.90
41256;DHT22;26989;45.524;10.938;2023-01-13T07:46:33;5.60;99.90
41256;DHT22;26989;45.524;10.938;2023-01-13T07:49:01;5.60;99.90
41256;DHT22;26989;45.524;10.938;2023-01-13T07:51:29;5.70;99.90
41256;DHT22;26989;45.524;10.938;2023-01-13T07:53:56;5.60;99.90
41256;DHT22;26989;45.524;10.938;2023-01-13T07:56:25;5.50;99.90
41256;DHT22;26989;45.524;10.938;2023-01-13T07:58:52;5.60;99.90
41256;DHT22;26989;45.524;10.938;2023-01-13T08:01:33;5.70;99.90
41256;DHT22;26989;45.524;10.938;2023-01-13T08:04:00;5.70;99.90
41256;DHT22;26989;45.524;10.938;2023-01-13T08:06:28;5.80;99.90
41256;DHT22;26989;45.524;10.938;2023-01-13T08:08:55;5.80;99.90
41256;DHT22;26989;45.524;10.938;2023-01-13T08:11:22;5.90;99.90
41256;DHT22;26989;45.524;10.938;2023-01-13T08:13:49;6.00;99.90
41256;DHT22;26989;45.524;10.938;2023-01-13T08:16:20;6.00;99.90
41256;DHT22;26989;45.524;10.938;2023-01-13T08:18:48;6.10;99.90
41256;DHT22;26989;45.524;10.938;2023-01-13T08:21:15;6.10;99.90
41256;DHT22;26989;45.524;10.938;2023-01-13T08:23:43;6.20;99.90
41256;DHT22;26989;45.524;10.938;2023-01-13T08:26:13;6.20;99.90
41256;DHT22;26989;45.524;10.938;2023-01-13T08:28:45;6.20;99.90
41256;DHT22;26989;45.524;10.938;2023-01-13T08:31:20;6.20;99.90
41256;DHT22;26989;45.524;10.938;2023-01-13T08:33:48;6.20;99.90
41256;DHT22;26989;45.524;10.938;2023-01-13T08:36:15;6.30;99.90
41256;DHT22;26989;45.524;10.938;2023-01-13T08:38:44;6.20;99.90
41256;DHT22;26989;45.524;10.938;2023-01-13T08:41:14;6.20;99.90
41256;DHT22;26989;45.524;10.938;2023-01-13T08:43:42;6.10;99.90
41256;DHT22;26989;45.524;10.938;2023-01-13T08:46:08;6.10;99.90
41256;DHT22;26989;45.524;10.938;2023-01-13T08:48:36;6.10;99.90
41256;DHT22;26989;45.524;10.938;2023-01-13T08:51:05;6.20;99.90
41256;DHT22;26989;45.524;10.938;2023-01-13T08:53:33;6.20;99.90
41256;DHT22;26989;45.524;10.938;2023-01-13T08:56:00;6.40;99.90
41256;DHT22;26989;45.524;10.938;2023-01-13T08:58:27;6.50;99.90
41256;DHT22;26989;45.524;10.938;2023-01-13T09:00:54;6.60;99.90
41256;DHT22;26989;45.524;10.938;2023-01-13T09:03:22;6.70;99.90
41256;DHT22;26989;45.524;10.938;2023-01-13T09:05:49;6.80;99.90
41256;DHT22;26989;45.524;10.938;2023-01-13T09:08:17;6.90;99.90
41256;DHT22;26989;45.524;10.938;2023-01-13T09:10:44;7.00;99.90
41256;DHT22;26989;45.524;10.938;2023-01-13T09:13:12;7.10;99.90
41256;DHT22;26989;45.524;10.938;2023-01-13T09:15:44;7.30;99.90
41256;DHT22;26989;45.524;10.938;2023-01-13T09:18:12;7.50;99.90
41256;DHT22;26989;45.524;10.938;2023-01-13T09:20:40;7.50;99.90
41256;DHT22;26989;45.524;10.938;2023-01-13T09:23:07;7.50;99.90
41256;DHT22;26989;45.524;10.938;2023-01-13T09:25:37;7.40;99.90
41256;DHT22;26989;45.524;10.938;2023-01-13T09:28:04;7.40;99.90
41256;DHT22;26989;45.524;10.938;2023-01-13T09:30:35;7.50;99.90
41256;DHT22;26989;45.524;10.938;2023-01-13T09:33:05;7.50;99.90
41256;DHT22;26989;45.524;10.938;2023-01-13T09:35:51;7.60;99.90
41256;DHT22;26989;45.524;10.938;2023-01-13T09:38:18;7.60;99.90
41256;DHT22;26989;45.524;10.938;2023-01-13T09:40:47;7.80;99.90
41256;DHT22;26989;45.524;10.938;2023-01-13T09:43:39;7.80;99.90
41256;DHT22;26989;45.524;10.938;2023-01-13T09:46:45;7.90;99.90
41256;DHT22;26989;45.524;10.938;2023-01-13T09:52:21;8.00;99.90
41256;DHT22;26989;45.524;10.938;2023-01-13T09:57:36;8.10;99.90
41256;DHT22;26989;45.524;10.938;2023-01-13T10:00:25;8.10;99.90
41256;DHT22;26989;45.524;10.938;2023-01-13T10:05:37;8.20;99.90
41256;DHT22;26989;45.524;10.938;2023-01-13T10:08:18;8.20;99.90
41256;DHT22;26989;45.524;10.938;2023-01-13T10:10:55;8.20;99.90
41256;DHT22;26989;45.524;10.938;2023-01-13T10:13:30;8.20;99.90
41256;DHT22;26989;45.524;10.938;2023-01-13T10:19:02;8.20;99.90
41256;DHT22;26989;45.524;10.938;2023-01-13T10:32:42;8.20;99.90
41256;DHT22;26989;45.524;10.938;2023-01-13T10:35:12;8.30;99.90
41256;DHT22;26989;45.524;10.938;2023-01-13T10:37:42;8.40;99.90
41256;DHT22;26989;45.524;10.938;2023-01-13T10:40:21;8.50;99.90
41256;DHT22;26989;45.524;10.938;2023-01-13T10:42:48;8.60;99.90
41256;DHT22;26989;45.524;10.938;2023-01-13T10:45:29;8.60;99.90
41256;DHT22;26989;45.524;10.938;2023-01-13T10:48:12;8.60;99.90
41256;DHT22;26989;45.524;10.938;2023-01-13T10:50:42;8.70;99.90
41256;DHT22;26989;45.524;10.938;2023-01-13T10:53:24;8.60;99.90
41256;DHT22;26989;45.524;10.938;2023-01-13T10:56:02;8.60;99.90
41256;DHT22;26989;45.524;10.938;2023-01-13T10:58:29;8.70;99.90
41256;DHT22;26989;45.524;10.938;2023-01-13T11:01:03;8.50;99.90
41256;DHT22;26989;45.524;10.938;2023-01-13T11:03:38;8.50;99.90
41256;DHT22;26989;45.524;10.938;2023-01-13T11:06:08;8.70;99.90
41256;DHT22;26989;45.524;10.938;2023-01-13T11:08:47;8.90;99.90
41256;DHT22;26989;45.524;10.938;2023-01-13T11:11:36;8.90;99.90
41256;DHT22;26989;45.524;10.938;2023-01-13T11:14:32;8.80;99.90
41256;DHT22;26989;45.524;10.938;2023-01-13T11:17:28;8.90;99.90
41256;DHT22;26989;45.524;10.938;2023-01-13T11:22:47;8.80;99.90
41256;DHT22;26989;45.524;10.938;2023-01-13T11:25:20;8.70;99.90
41256;DHT22;26989;45.524;10.938;2023-01-13T11:27:56;8.80;99.90
41256;DHT22;26989;45.524;10.938;2023-01-13T11:31:21;8.70;99.90
41256;DHT22;26989;45.524;10.938;2023-01-13T11:33:29;8.50;99.90
41256;DHT22;26989;45.524;10.938;2023-01-13T11:36:05;8.70;99.90
41256;DHT22;26989;45.524;10.938;2023-01-13T11:38:47;8.70;99.90
41256;DHT22;26989;45.524;10.938;2023-01-13T11:41:44;8.80;99.90
41256;DHT22;26989;45.524;10.938;2023-01-13T11:44:59;8.80;99.90
41256;DHT22;26989;45.524;10.938;2023-01-13T11:47:30;8.70;99.90
41256;DHT22;26989;45.524;10.938;2023-01-13T11:49:58;8.60;99.90
41256;DHT22;26989;45.524;10.938;2023-01-13T12:01:02;8.70;99.90
41256;DHT22;26989;45.524;10.938;2023-01-13T12:03:58;8.70;99.90
41256;DHT22;26989;45.524;10.938;2023-01-13T12:06:37;8.80;99.90
41256;DHT22;26989;45.524;10.938;2023-01-13T12:21:20;8.50;99.90
41256;DHT22;26989;45.524;10.938;2023-01-13T12:24:19;8.50;99.90
41256;DHT22;26989;45.524;10.938;2023-01-13T12:26:50;8.30;99.90
41256;DHT22;26989;45.524;10.938;2023-01-13T12:29:34;8.30;99.90
41256;DHT22;26989;45.524;10.938;2023-01-13T12:32:10;8.40;99.90
41256;DHT22;26989;45.524;10.938;2023-01-13T12:34:59;8.50;99.90
41256;DHT22;26989;45.524;10.938;2023-01-13T12:43:28;8.90;99.90
41256;DHT22;26989;45.524;10.938;2023-01-13T12:46:32;8.90;99.90
41256;DHT22;26989;45.524;10.938;2023-01-13T12:49:18;8.90;99.90
41256;DHT22;26989;45.524;10.938;2023-01-13T12:52:12;8.80;99.90
41256;DHT22;26989;45.524;10.938;2023-01-13T12:57:29;8.60;99.90
41256;DHT22;26989;45.524;10.938;2023-01-13T13:02:41;8.50;99.90
41256;DHT22;26989;45.524;10.938;2023-01-13T13:08:17;8.30;99.90
41256;DHT22;26989;45.524;10.938;2023-01-13T13:14:04;8.10;99.90
41256;DHT22;26989;45.524;10.938;2023-01-13T13:16:59;8.00;99.90
41256;DHT22;26989;45.524;10.938;2023-01-13T13:19:40;7.90;99.90
41256;DHT22;26989;45.524;10.938;2023-01-13T13:24:39;7.70;99.90
41256;DHT22;26989;45.524;10.938;2023-01-13T13:27:44;7.60;99.90
41256;DHT22;26989;45.524;10.938;2023-01-13T13:30:27;7.50;99.90
41256;DHT22;26989;45.524;10.938;2023-01-13T13:38:56;7.30;99.90
41256;DHT22;26989;45.524;10.938;2023-01-13T13:42:08;7.30;99.90
41256;DHT22;26989;45.524;10.938;2023-01-13T13:45:22;7.40;99.90
41256;DHT22;26989;45.524;10.938;2023-01-13T13:48:26;7.30;99.90
41256;DHT22;26989;45.524;10.938;2023-01-13T13:51:02;7.30;99.90
41256;DHT22;26989;45.524;10.938;2023-01-13T13:53:45;7.20;99.90
41256;DHT22;26989;45.524;10.938;2023-01-13T13:56:21;7.20;99.90
41256;DHT22;26989;45.524;10.938;2023-01-13T13:58:51;7.20;99.90
41256;DHT22;26989;45.524;10.938;2023-01-13T14:01:31;7.20;99.90
41256;DHT22;26989;45.524;10.938;2023-01-13T14:04:22;7.30;99.90
41256;DHT22;26989;45.524;10.938;2023-01-13T14:06:56;7.40;99.90
41256;DHT22;26989;45.524;10.938;2023-01-13T14:09:24;7.60;99.90
41256;DHT22;26989;45.524;10.938;2023-01-13T14:11:58;7.80;99.90
41256;DHT22;26989;45.524;10.938;2023-01-13T14:14:26;7.90;99.90
41256;DHT22;26989;45.524;10.938;2023-01-13T14:16:54;7.80;99.90
41256;DHT22;26989;45.524;10.938;2023-01-13T14:19:30;7.70;99.90
41256;DHT22;26989;45.524;10.938;2023-01-13T14:22:04;7.60;99.90
41256;DHT22;26989;45.524;10.938;2023-01-13T14:24:32;7.80;99.90
41256;DHT22;26989;45.524;10.938;2023-01-13T14:27:08;8.00;99.90
41256;DHT22;26989;45.524;10.938;2023-01-13T14:29:36;8.20;99.90
41256;DHT22;26989;45.524;10.938;2023-01-13T14:32:04;8.00;99.90
41256;DHT22;26989;45.524;10.938;2023-01-13T14:34:33;8.00;99.90
41256;DHT22;26989;45.524;10.938;2023-01-13T14:37:24;8.00;99.90
41256;DHT22;26989;45.524;10.938;2023-01-13T14:39:53;7.90;99.90
41256;DHT22;26989;45.524;10.938;2023-01-13T14:42:23;8.00;99.90
41256;DHT22;26989;45.524;10.938;2023-01-13T14:44:50;8.10;99.90
41256;DHT22;26989;45.524;10.938;2023-01-13T14:47:21;8.10;99.90
41256;DHT22;26989;45.524;10.938;2023-01-13T14:52:31;8.00;99.90
41256;DHT22;26989;45.524;10.938;2023-01-13T14:57:33;8.00;99.90
41256;DHT22;26989;45.524;10.938;2023-01-13T15:03:02;8.00;99.90
41256;DHT22;26989;45.524;10.938;2023-01-13T15:05:32;7.90;99.90
41256;DHT22;26989;45.524;10.938;2023-01-13T15:08:04;7.80;99.90
41256;DHT22;26989;45.524;10.938;2023-01-13T15:10:34;7.80;99.90
41256;DHT22;26989;45.524;10.938;2023-01-13T15:13:05;7.70;99.90
41256;DHT22;26989;45.524;10.938;2023-01-13T15:15:35;7.80;99.90
41256;DHT22;26989;45.524;10.938;2023-01-13T15:18:13;7.70;99.90
41256;DHT22;26989;45.524;10.938;2023-01-13T15:20:41;7.60;99.90
41256;DHT22;26989;45.524;10.938;2023-01-13T15:23:08;7.50;99.90
41256;DHT22;26989;45.524;10.938;2023-01-13T15:25:39;7.50;99.90
41256;DHT22;26989;45.524;10.938;2023-01-13T15:28:23;7.30;99.90
41256;DHT22;26989;45.524;10.938;2023-01-13T15:30:52;7.20;99.90
41256;DHT22;26989;45.524;10.938;2023-01-13T15:33:20;7.10;99.90
41256;DHT22;26989;45.524;10.938;2023-01-13T15:35:49;6.80;99.90
41256;DHT22;26989;45.524;10.938;2023-01-13T15:38:21;6.70;99.90
41256;DHT22;26989;45.524;10.938;2023-01-13T15:40:49;6.50;99.90
41256;DHT22;26989;45.524;10.938;2023-01-13T15:43:19;6.50;99.90
41256;DHT22;26989;45.524;10.938;2023-01-13T15:46:25;6.30;99.90
41256;DHT22;26989;45.524;10.938;2023-01-13T15:49:11;6.20;99.90
41256;DHT22;26989;45.524;10.938;2023-01-13T15:51:42;6.20;99.90
41256;DHT22;26989;45.524;10.938;2023-01-13T15:54:09;6.20;99.90
41256;DHT22;26989;45.524;10.938;2023-01-13T15:56:38;6.30;99.90
41256;DHT22;26989;45.524;10.938;2023-01-13T15:59:20;6.10;99.90
41256;DHT22;26989;45.524;10.938;2023-01-13T16:01:47;6.10;99.90
41256;DHT22;26989;45.524;10.938;2023-01-13T16:04:14;6.00;99.90
41256;DHT22;26989;45.524;10.938;2023-01-13T16:06:41;6.00;99.90
41256;DHT22;26989;45.524;10.938;2023-01-13T16:09:13;5.90;99.90
41256;DHT22;26989;45.524;10.938;2023-01-13T16:11:45;5.70;99.90
41256;DHT22;26989;45.524;10.938;2023-01-13T16:14:13;5.40;99.90
41256;DHT22;26989;45.524;10.938;2023-01-13T16:16:42;5.50;99.90
41256;DHT22;26989;45.524;10.938;2023-01-13T16:19:13;5.40;99.90
41256;DHT22;26989;45.524;10.938;2023-01-13T16:21:41;5.40;99.90
41256;DHT22;26989;45.524;10.938;2023-01-13T16:24:09;5.40;99.90
41256;DHT22;26989;45.524;10.938;2023-01-13T16:26:50;5.40;99.90
41256;DHT22;26989;45.524;10.938;2023-01-13T16:29:18;5.30;99.90
41256;DHT22;26989;45.524;10.938;2023-01-13T16:32:15;5.20;99.90
41256;DHT22;26989;45.524;10.938;2023-01-13T16:35:03;5.20;99.90
41256;DHT22;26989;45.524;10.938;2023-01-13T16:37:31;5.10;99.90
41256;DHT22;26989;45.524;10.938;2023-01-13T16:39:58;5.00;99.90
41256;DHT22;26989;45.524;10.938;2023-01-13T16:42:29;5.00;99.90
41256;DHT22;26989;45.524;10.938;2023-01-13T16:44:57;5.00;99.90
41256;DHT22;26989;45.524;10.938;2023-01-13T16:47:27;4.90;99.90
41256;DHT22;26989;45.524;10.938;2023-01-13T16:49:58;4.80;99.90
41256;DHT22;26989;45.524;10.938;2023-01-13T16:52:26;4.80;99.90
41256;DHT22;26989;45.524;10.938;2023-01-13T16:54:53;4.70;99.90
41256;DHT22;26989;45.524;10.938;2023-01-13T16:57:20;4.70;99.90
41256;DHT22;26989;45.524;10.938;2023-01-13T16:59:46;4.80;99.90
41256;DHT22;26989;45.524;10.938;2023-01-13T17:02:14;4.70;99.90
41256;DHT22;26989;45.524;10.938;2023-01-13T17:04:42;4.60;99.90
41256;DHT22;26989;45.524;10.938;2023-01-13T17:07:14;4.50;99.90
41256;DHT22;26989;45.524;10.938;2023-01-13T17:09:41;4.50;99.90
41256;DHT22;26989;45.524;10.938;2023-01-13T17:12:09;4.40;99.90
41256;DHT22;26989;45.524;10.938;2023-01-13T17:14:41;4.40;99.90
41256;DHT22;26989;45.524;10.938;2023-01-13T17:17:27;4.40;99.90
41256;DHT22;26989;45.524;10.938;2023-01-13T17:19:56;4.50;99.90
41256;DHT22;26989;45.524;10.938;2023-01-13T17:22:24;4.50;99.90
41256;DHT22;26989;45.524;10.938;2023-01-13T17:25:10;4.50;99.90
41256;DHT22;26989;45.524;10.938;2023-01-13T17:30:29;4.30;99.90
41256;DHT22;26989;45.524;10.938;2023-01-13T17:32:56;4.30;99.90
41256;DHT22;26989;45.524;10.938;2023-01-13T17:35:24;4.20;99.90
41256;DHT22;26989;45.524;10.938;2023-01-13T17:37:52;4.20;99.90
41256;DHT22;26989;45.524;10.938;2023-01-13T17:46:33;4.30;99.90
41256;DHT22;26989;45.524;10.938;2023-01-13T17:49:11;4.30;99.90
41256;DHT22;26989;45.524;10.938;2023-01-13T17:51:58;4.30;99.90
41256;DHT22;26989;45.524;10.938;2023-01-13T17:54:43;4.20;99.90
41256;DHT22;26989;45.524;10.938;2023-01-13T17:57:10;4.30;99.90
41256;DHT22;26989;45.524;10.938;2023-01-13T17:59:50;4.20;99.90
41256;DHT22;26989;45.524;10.938;2023-01-13T18:02:27;4.20;99.90
41256;DHT22;26989;45.524;10.938;2023-01-13T18:07:36;4.20;99.90
41256;DHT22;26989;45.524;10.938;2023-01-13T18:10:39;4.30;99.90
41256;DHT22;26989;45.524;10.938;2023-01-13T18:13:07;4.20;99.90
41256;DHT22;26989;45.524;10.938;2023-01-13T18:21:28;4.20;99.90
41256;DHT22;26989;45.524;10.938;2023-01-13T18:24:28;4.40;99.90
41256;DHT22;26989;45.524;10.938;2023-01-13T18:30:27;4.40;99.90
41256;DHT22;26989;45.524;10.938;2023-01-13T18:35:50;4.30;99.90
41256;DHT22;26989;45.524;10.938;2023-01-13T18:38:31;4.20;99.90